sensor_id;sensor_type;location;lat;lon;timestamp;pressure;altitude;pressure_sealevel;temperature;humidity
63808;BME280;49961;43.970;22.868;2024-03-08T00:00:27;102006.47;;;7.75;100.00
63808;BME280;49961;43.970;22.868;2024-03-08T00:01:28;102010.44;;;7.78;100.00
63808;BME280;49961;43.970;22.868;2024-03-08T00:02:28;102006.81;;;7.67;100.00
63808;BME280;49961;43.970;22.868;2024-03-08T00:03:29;102016.25;;;7.66;100.00
63808;BME280;49961;43.970;22.868;2024-03-08T00:04:30;102007.97;;;7.66;100.00
63808;BME280;49961;43.970;22.868;2024-03-08T00:05:31;102009.53;;;7.63;100.00
63808;BME280;49961;43.970;22.868;2024-03-08T00:06:32;102007.13;;;7.62;100.00
63808;BME280;49961;43.970;22.868;2024-03-08T00:07:32;102009.03;;;7.54;100.00
63808;BME280;49961;43.970;22.868;2024-03-08T00:08:33;102014.13;;;7.49;100.00
63808;BME280;49961;43.970;22.868;2024-03-08T00:09:33;102009.66;;;7.37;100.00
63808;BME280;49961;43.970;22.868;2024-03-08T00:10:34;101957.63;;;6.99;100.00
63808;BME280;49961;43.970;22.868;2024-03-08T00:11:34;102016.78;;;7.42;100.00
63808;BME280;49961;43.970;22.868;2024-03-08T00:12:35;102010.47;;;7.41;100.00
63808;BME280;49961;43.970;22.868;2024-03-08T00:13:35;102016.41;;;7.43;100.00
63808;BME280;49961;43.970;22.868;2024-03-08T00:14:36;102014.50;;;7.47;100.00
63808;BME280;49961;43.970;22.868;2024-03-08T00:15:37;102021.53;;;7.41;100.00
63808;BME280;49961;43.970;22.868;2024-03-08T00:16:38;102015.63;;;7.43;100.00
63808;BME280;49961;43.970;22.868;2024-03-08T00:17:38;102014.13;;;7.49;100.00
63808;BME280;49961;43.970;22.868;2024-03-08T00:18:39;102007.88;;;7.55;100.00
63808;BME280;49961;43.970;22.868;2024-03-08T00:19:40;102009.00;;;7.51;100.00
63808;BME280;49961;43.970;22.868;2024-03-08T00:20:41;102016.22;;;7.62;100.00
63808;BME280;49961;43.970;22.868;2024-03-08T00:21:42;102014.31;;;7.66;100.00
63808;BME280;49961;43.970;22.868;2024-03-08T00:22:42;102014.34;;;7.70;100.00
63808;BME280;49961;43.970;22.868;2024-03-08T00:23:43;102017.03;;;7.63;100.00
63808;BME280;49961;43.970;22.868;2024-03-08T00:24:44;101932.16;;;7.09;100.00
63808;BME280;49961;43.970;22.868;2024-03-08T00:25:45;102022.88;;;7.58;100.00
63808;BME280;49961;43.970;22.868;2024-03-08T00:26:45;102013.47;;;7.62;100.00
63808;BME280;49961;43.970;22.868;2024-03-08T00:27:46;102006.28;;;7.54;100.00
63808;BME280;49961;43.970;22.868;2024-03-08T00:28:49;102010.47;;;7.41;100.00
63808;BME280;49961;43.970;22.868;2024-03-08T00:29:50;102013.16;;;7.34;100.00
63808;BME280;49961;43.970;22.868;2024-03-08T00:30:50;102015.53;;;7.36;100.00
63808;BME280;49961;43.970;22.868;2024-03-08T00:31:51;102015.97;;;7.38;100.00
63808;BME280;49961;43.970;22.868;2024-03-08T00:32:51;101981.38;;;7.11;100.00
63808;BME280;49961;43.970;22.868;2024-03-08T00:33:52;101915.09;;;6.67;100.00
63808;BME280;49961;43.970;22.868;2024-03-08T00:34:55;102019.84;;;7.33;100.00
63808;BME280;49961;43.970;22.868;2024-03-08T00:35:56;102015.53;;;7.36;100.00
63808;BME280;49961;43.970;22.868;2024-03-08T00:36:57;102018.78;;;7.45;100.00
63808;BME280;49961;43.970;22.868;2024-03-08T00:37:58;102016.53;;;7.54;100.00
63808;BME280;49961;43.970;22.868;2024-03-08T00:38:59;102022.13;;;7.61;100.00
63808;BME280;49961;43.970;22.868;2024-03-08T00:40:01;102022.78;;;7.51;100.00
63808;BME280;49961;43.970;22.868;2024-03-08T00:41:01;102018.09;;;7.51;100.00
63808;BME280;49961;43.970;22.868;2024-03-08T00:42:02;102018.06;;;7.48;100.00
63808;BME280;49961;43.970;22.868;2024-03-08T00:43:03;102017.28;;;7.51;100.00
63808;BME280;49961;43.970;22.868;2024-03-08T00:44:04;101852.69;;;6.49;100.00
63808;BME280;49961;43.970;22.868;2024-03-08T00:45:05;102043.06;;;7.65;100.00
63808;BME280;49961;43.970;22.868;2024-03-08T00:46:06;102019.84;;;7.70;100.00
63808;BME280;49961;43.970;22.868;2024-03-08T00:47:06;102011.97;;;7.72;100.00
63808;BME280;49961;43.970;22.868;2024-03-08T00:48:07;102015.53;;;7.72;100.00
63808;BME280;49961;43.970;22.868;2024-03-08T00:49:07;102022.56;;;7.66;100.00
63808;BME280;49961;43.970;22.868;2024-03-08T00:50:08;102016.22;;;7.62;100.00
63808;BME280;49961;43.970;22.868;2024-03-08T00:51:08;101955.13;;;7.24;100.00
63808;BME280;49961;43.970;22.868;2024-03-08T00:52:09;102018.16;;;7.58;100.00
63808;BME280;49961;43.970;22.868;2024-03-08T00:53:11;101998.78;;;7.51;100.00
63808;BME280;49961;43.970;22.868;2024-03-08T00:54:12;102011.44;;;7.59;100.00
63808;BME280;49961;43.970;22.868;2024-03-08T00:55:12;102016.59;;;7.61;100.00
63808;BME280;49961;43.970;22.868;2024-03-08T00:56:13;102011.50;;;7.63;100.00
63808;BME280;49961;43.970;22.868;2024-03-08T00:57:13;102013.06;;;7.60;100.00
63808;BME280;49961;43.970;22.868;2024-03-08T00:58:15;102017.41;;;7.61;100.00
63808;BME280;49961;43.970;22.868;2024-03-08T00:59:15;102008.75;;;7.63;100.00
63808;BME280;49961;43.970;22.868;2024-03-08T01:00:16;102017.44;;;7.65;100.00
63808;BME280;49961;43.970;22.868;2024-03-08T01:01:18;102016.28;;;7.69;100.00
63808;BME280;49961;43.970;22.868;2024-03-08T01:02:19;102018.19;;;7.62;100.00
63808;BME280;49961;43.970;22.868;2024-03-08T01:03:21;101990.00;;;7.42;100.00
63808;BME280;49961;43.970;22.868;2024-03-08T01:04:21;102013.41;;;7.55;100.00
63808;BME280;49961;43.970;22.868;2024-03-08T01:05:23;102012.56;;;7.51;100.00
63808;BME280;49961;43.970;22.868;2024-03-08T01:06:24;101886.47;;;6.75;100.00
63808;BME280;49961;43.970;22.868;2024-03-08T01:07:25;102010.69;;;7.59;100.00
63808;BME280;49961;43.970;22.868;2024-03-08T01:08:25;101994.81;;;7.49;100.00
63808;BME280;49961;43.970;22.868;2024-03-08T01:09:26;102003.56;;;7.58;100.00
63808;BME280;49961;43.970;22.868;2024-03-08T01:10:27;102012.31;;;7.67;100.00
63808;BME280;49961;43.970;22.868;2024-03-08T01:11:27;101959.97;;;7.34;100.00
63808;BME280;49961;43.970;22.868;2024-03-08T01:12:28;101888.13;;;6.83;100.00
63808;BME280;49961;43.970;22.868;2024-03-08T01:13:29;102005.69;;;7.71;100.00
63808;BME280;49961;43.970;22.868;2024-03-08T01:14:30;102004.47;;;7.69;100.00
63808;BME280;49961;43.970;22.868;2024-03-08T01:15:31;102011.09;;;7.64;100.00
63808;BME280;49961;43.970;22.868;2024-03-08T01:16:31;102009.56;;;7.67;100.00
63808;BME280;49961;43.970;22.868;2024-03-08T01:17:33;102008.41;;;7.68;100.00
63808;BME280;49961;43.970;22.868;2024-03-08T01:18:34;102012.78;;;7.72;100.00
63808;BME280;49961;43.970;22.868;2024-03-08T01:19:34;102017.44;;;7.65;100.00
63808;BME280;49961;43.970;22.868;2024-03-08T01:20:35;102012.28;;;7.63;100.00
63808;BME280;49961;43.970;22.868;2024-03-08T01:21:36;102010.66;;;7.55;100.00
63808;BME280;49961;43.970;22.868;2024-03-08T01:22:36;102004.44;;;7.65;100.00
63808;BME280;49961;43.970;22.868;2024-03-08T01:23:37;101958.00;;;7.34;100.00
63808;BME280;49961;43.970;22.868;2024-03-08T01:24:38;101998.06;;;7.58;100.00
63808;BME280;49961;43.970;22.868;2024-03-08T01:25:39;102009.09;;;7.58;100.00
63808;BME280;49961;43.970;22.868;2024-03-08T01:26:39;102007.09;;;7.58;100.00
63808;BME280;49961;43.970;22.868;2024-03-08T01:27:40;101988.09;;;7.46;100.00
63808;BME280;49961;43.970;22.868;2024-03-08T01:28:40;102005.91;;;7.56;100.00
63808;BME280;49961;43.970;22.868;2024-03-08T01:29:41;102006.75;;;7.60;100.00
63808;BME280;49961;43.970;22.868;2024-03-08T01:30:41;102003.66;;;7.68;100.00
63808;BME280;49961;43.970;22.868;2024-03-08T01:31:43;102012.06;;;7.79;100.00
63808;BME280;49961;43.970;22.868;2024-03-08T01:32:43;102010.50;;;7.81;100.00
63808;BME280;49961;43.970;22.868;2024-03-08T01:33:44;102012.13;;;7.86;100.00
63808;BME280;49961;43.970;22.868;2024-03-08T01:34:44;102004.22;;;7.84;100.00
63808;BME280;49961;43.970;22.868;2024-03-08T01:35:45;102012.91;;;7.86;100.00
63808;BME280;49961;43.970;22.868;2024-03-08T01:36:46;102014.91;;;7.89;100.00
63808;BME280;49961;43.970;22.868;2024-03-08T01:37:46;102012.97;;;7.93;100.00
63808;BME280;49961;43.970;22.868;2024-03-08T01:38:48;102011.03;;;7.94;100.00
63808;BME280;49961;43.970;22.868;2024-03-08T01:39:48;102015.75;;;7.97;100.00
63808;BME280;49961;43.970;22.868;2024-03-08T01:40:52;102018.94;;;7.99;100.00
63808;BME280;49961;43.970;22.868;2024-03-08T01:41:52;102009.13;;;8.01;100.00
63808;BME280;49961;43.970;22.868;2024-03-08T01:42:54;102014.28;;;8.06;100.00
63808;BME280;49961;43.970;22.868;2024-03-08T01:43:54;101997.25;;;8.01;100.00
63808;BME280;49961;43.970;22.868;2024-03-08T01:44:55;102011.53;;;8.10;100.00
63808;BME280;49961;43.970;22.868;2024-03-08T01:45:58;102007.59;;;8.11;100.00
63808;BME280;49961;43.970;22.868;2024-03-08T01:47:02;101997.63;;;7.99;100.00
63808;BME280;49961;43.970;22.868;2024-03-08T01:48:03;101993.50;;;7.76;100.00
63808;BME280;49961;43.970;22.868;2024-03-08T01:49:04;102008.97;;;7.87;100.00
63808;BME280;49961;43.970;22.868;2024-03-08T01:50:05;102005.06;;;7.92;100.00
63808;BME280;49961;43.970;22.868;2024-03-08T01:51:06;102012.63;;;7.98;100.00
63808;BME280;49961;43.970;22.868;2024-03-08T01:52:07;102011.38;;;7.89;100.00
63808;BME280;49961;43.970;22.868;2024-03-08T01:53:08;102006.91;;;7.77;100.00
63808;BME280;49961;43.970;22.868;2024-03-08T01:54:10;102009.69;;;7.77;100.00
63808;BME280;49961;43.970;22.868;2024-03-08T01:55:12;102006.09;;;7.77;100.00
63808;BME280;49961;43.970;22.868;2024-03-08T01:56:16;102005.22;;;7.66;100.00
63808;BME280;49961;43.970;22.868;2024-03-08T01:57:18;102010.31;;;7.60;100.00
63808;BME280;49961;43.970;22.868;2024-03-08T01:58:19;102007.13;;;7.62;100.00
63808;BME280;49961;43.970;22.868;2024-03-08T01:59:22;102016.25;;;7.66;100.00
63808;BME280;49961;43.970;22.868;2024-03-08T02:00:23;102008.66;;;7.56;100.00
63808;BME280;49961;43.970;22.868;2024-03-08T02:01:27;102018.94;;;7.59;100.00
63808;BME280;49961;43.970;22.868;2024-03-08T02:02:31;102007.13;;;7.62;100.00
63808;BME280;49961;43.970;22.868;2024-03-08T02:03:32;102013.09;;;7.64;100.00
63808;BME280;49961;43.970;22.868;2024-03-08T02:04:33;102004.31;;;7.55;100.00
63808;BME280;49961;43.970;22.868;2024-03-08T02:05:33;102007.09;;;7.58;100.00
63808;BME280;49961;43.970;22.868;2024-03-08T02:06:34;102010.66;;;7.55;100.00
63808;BME280;49961;43.970;22.868;2024-03-08T02:07:34;102008.28;;;7.57;100.00
63808;BME280;49961;43.970;22.868;2024-03-08T02:08:36;102011.91;;;7.65;100.00
63808;BME280;49961;43.970;22.868;2024-03-08T02:09:36;102008.31;;;7.61;100.00
63808;BME280;49961;43.970;22.868;2024-03-08T02:10:38;102006.34;;;7.58;100.00
63808;BME280;49961;43.970;22.868;2024-03-08T02:11:40;102010.34;;;7.64;100.00
63808;BME280;49961;43.970;22.868;2024-03-08T02:12:41;101830.66;;;6.49;100.00
63808;BME280;49961;43.970;22.868;2024-03-08T02:13:43;102013.31;;;7.48;100.00
63808;BME280;49961;43.970;22.868;2024-03-08T02:14:43;102005.47;;;7.50;100.00
63808;BME280;49961;43.970;22.868;2024-03-08T02:15:55;101962.16;;;7.18;100.00
63808;BME280;49961;43.970;22.868;2024-03-08T02:17:00;102003.78;;;7.42;100.00
63808;BME280;49961;43.970;22.868;2024-03-08T02:18:00;102007.72;;;7.41;100.00
63808;BME280;49961;43.970;22.868;2024-03-08T02:19:01;101982.75;;;7.27;100.00
63808;BME280;49961;43.970;22.868;2024-03-08T02:20:02;102010.16;;;7.46;100.00
63808;BME280;49961;43.970;22.868;2024-03-08T02:21:05;102003.31;;;7.37;100.00
63808;BME280;49961;43.970;22.868;2024-03-08T02:22:06;102014.03;;;7.42;100.00
63808;BME280;49961;43.970;22.868;2024-03-08T02:23:06;102003.75;;;7.39;100.00
63808;BME280;49961;43.970;22.868;2024-03-08T02:24:07;102002.72;;;7.50;100.00
63808;BME280;49961;43.970;22.868;2024-03-08T02:25:08;101897.56;;;6.82;100.00
63808;BME280;49961;43.970;22.868;2024-03-08T02:26:08;102013.81;;;7.57;100.00
63808;BME280;49961;43.970;22.868;2024-03-08T02:27:09;102016.91;;;7.52;100.00
63808;BME280;49961;43.970;22.868;2024-03-08T02:28:12;102019.69;;;7.56;100.00
63808;BME280;49961;43.970;22.868;2024-03-08T02:29:14;101887.06;;;6.58;100.00
63808;BME280;49961;43.970;22.868;2024-03-08T02:30:15;102021.03;;;7.36;100.00
63808;BME280;49961;43.970;22.868;2024-03-08T02:31:17;102016.03;;;7.45;100.00
63808;BME280;49961;43.970;22.868;2024-03-08T02:32:18;102027.78;;;7.38;100.00
63808;BME280;49961;43.970;22.868;2024-03-08T02:33:18;102022.69;;;7.40;100.00
63808;BME280;49961;43.970;22.868;2024-03-08T02:34:19;102021.19;;;7.46;100.00
63808;BME280;49961;43.970;22.868;2024-03-08T02:35:20;101841.22;;;6.43;100.00
63808;BME280;49961;43.970;22.868;2024-03-08T02:36:20;102027.44;;;7.43;100.00
63808;BME280;49961;43.970;22.868;2024-03-08T02:37:21;102022.28;;;7.42;100.00
63808;BME280;49961;43.970;22.868;2024-03-08T02:38:22;102014.47;;;7.44;100.00
63808;BME280;49961;43.970;22.868;2024-03-08T02:39:24;102021.38;;;7.31;100.00
63808;BME280;49961;43.970;22.868;2024-03-08T02:40:24;101963.41;;;6.91;100.00
63808;BME280;49961;43.970;22.868;2024-03-08T02:41:25;102011.34;;;7.16;100.00
63808;BME280;49961;43.970;22.868;2024-03-08T02:42:26;102037.19;;;7.34;100.00
63808;BME280;49961;43.970;22.868;2024-03-08T02:43:26;102026.16;;;7.34;100.00
63808;BME280;49961;43.970;22.868;2024-03-08T02:44:27;102022.25;;;7.38;100.00
63808;BME280;49961;43.970;22.868;2024-03-08T02:45:27;102023.16;;;7.49;100.00
63808;BME280;49961;43.970;22.868;2024-03-08T02:46:28;102028.00;;;7.59;100.00
63808;BME280;49961;43.970;22.868;2024-03-08T02:47:30;102024.47;;;7.59;100.00
63808;BME280;49961;43.970;22.868;2024-03-08T02:48:31;102018.84;;;7.52;100.00
63808;BME280;49961;43.970;22.868;2024-03-08T02:49:32;101958.53;;;7.10;100.00
63808;BME280;49961;43.970;22.868;2024-03-08T02:50:32;102027.09;;;7.48;100.00
63808;BME280;49961;43.970;22.868;2024-03-08T02:51:34;102007.72;;;7.41;100.00
63808;BME280;49961;43.970;22.868;2024-03-08T02:52:36;102024.34;;;7.48;100.00
63808;BME280;49961;43.970;22.868;2024-03-08T02:53:36;101834.84;;;6.36;100.00
63808;BME280;49961;43.970;22.868;2024-03-08T02:54:38;101986.06;;;7.43;100.00
63808;BME280;49961;43.970;22.868;2024-03-08T02:55:39;102023.75;;;7.65;100.00
63808;BME280;49961;43.970;22.868;2024-03-08T02:56:41;101960.69;;;7.27;100.00
63808;BME280;49961;43.970;22.868;2024-03-08T02:57:42;101973.75;;;7.34;100.00
63808;BME280;49961;43.970;22.868;2024-03-08T02:58:43;102027.63;;;7.61;100.00
63808;BME280;49961;43.970;22.868;2024-03-08T02:59:48;102024.47;;;7.59;100.00
63808;BME280;49961;43.970;22.868;2024-03-08T03:00:49;102022.88;;;7.58;100.00
63808;BME280;49961;43.970;22.868;2024-03-08T03:01:50;102027.63;;;7.61;100.00
63808;BME280;49961;43.970;22.868;2024-03-08T03:02:51;102020.47;;;7.53;100.00
63808;BME280;49961;43.970;22.868;2024-03-08T03:03:54;102026.03;;;7.56;100.00
63808;BME280;49961;43.970;22.868;2024-03-08T03:04:55;102000.66;;;7.44;100.00
63808;BME280;49961;43.970;22.868;2024-03-08T03:05:56;102030.38;;;7.61;100.00
63808;BME280;49961;43.970;22.868;2024-03-08T03:06:56;102022.22;;;7.68;100.00
63808;BME280;49961;43.970;22.868;2024-03-08T03:07:57;101938.47;;;7.13;100.00
63808;BME280;49961;43.970;22.868;2024-03-08T03:08:58;102025.72;;;7.65;100.00
63808;BME280;49961;43.970;22.868;2024-03-08T03:09:59;101996.78;;;7.52;100.00
63808;BME280;49961;43.970;22.868;2024-03-08T03:11:03;102029.34;;;7.72;100.00
63808;BME280;49961;43.970;22.868;2024-03-08T03:12:03;102024.22;;;7.74;100.00
63808;BME280;49961;43.970;22.868;2024-03-08T03:13:04;101904.41;;;6.95;100.00
63808;BME280;49961;43.970;22.868;2024-03-08T03:14:05;102031.25;;;7.68;100.00
63808;BME280;49961;43.970;22.868;2024-03-08T03:15:07;102021.44;;;7.71;100.00
63808;BME280;49961;43.970;22.868;2024-03-08T03:16:08;102022.75;;;7.84;100.00
63808;BME280;49961;43.970;22.868;2024-03-08T03:17:10;102020.34;;;7.79;100.00
63808;BME280;49961;43.970;22.868;2024-03-08T03:18:10;102032.25;;;7.86;100.00
63808;BME280;49961;43.970;22.868;2024-03-08T03:19:12;101960.50;;;7.46;100.00
63808;BME280;49961;43.970;22.868;2024-03-08T03:20:13;102028.31;;;7.87;100.00
63808;BME280;49961;43.970;22.868;2024-03-08T03:21:14;101986.34;;;7.68;100.00
63808;BME280;49961;43.970;22.868;2024-03-08T03:22:15;102027.59;;;7.94;100.00
63808;BME280;49961;43.970;22.868;2024-03-08T03:23:16;102023.22;;;7.93;100.00
63808;BME280;49961;43.970;22.868;2024-03-08T03:24:20;102033.50;;;7.96;100.00
63808;BME280;49961;43.970;22.868;2024-03-08T03:25:21;102024.47;;;7.99;100.00
63808;BME280;49961;43.970;22.868;2024-03-08T03:26:25;102029.56;;;7.97;100.00
63808;BME280;49961;43.970;22.868;2024-03-08T03:27:26;102028.38;;;7.98;100.00
63808;BME280;49961;43.970;22.868;2024-03-08T03:28:26;102023.69;;;8.02;100.00
63808;BME280;49961;43.970;22.868;2024-03-08T03:29:28;102025.28;;;8.03;100.00
63808;BME280;49961;43.970;22.868;2024-03-08T03:30:30;102028.84;;;8.03;100.00
63808;BME280;49961;43.970;22.868;2024-03-08T03:31:34;101942.38;;;7.45;100.00
63808;BME280;49961;43.970;22.868;2024-03-08T03:32:34;102030.78;;;8.03;100.00
63808;BME280;49961;43.970;22.868;2024-03-08T03:33:47;102024.94;;;8.08;100.00
63808;BME280;49961;43.970;22.868;2024-03-08T03:34:47;102032.47;;;8.14;100.00
63808;BME280;49961;43.970;22.868;2024-03-08T03:35:48;102025.75;;;8.12;100.00
63808;BME280;49961;43.970;22.868;2024-03-08T03:36:49;102029.34;;;8.16;100.00
63808;BME280;49961;43.970;22.868;2024-03-08T03:37:49;102024.22;;;8.18;100.00
63808;BME280;49961;43.970;22.868;2024-03-08T03:39:22;102032.13;;;8.19;100.00
63808;BME280;49961;43.970;22.868;2024-03-08T03:40:23;102030.19;;;8.20;100.00
63808;BME280;49961;43.970;22.868;2024-03-08T03:41:25;102020.72;;;8.21;100.00
63808;BME280;49961;43.970;22.868;2024-03-08T03:42:26;102023.13;;;8.22;100.00
63808;BME280;49961;43.970;22.868;2024-03-08T03:43:26;102030.63;;;8.25;100.00
63808;BME280;49961;43.970;22.868;2024-03-08T03:44:30;102025.06;;;8.22;100.00
63808;BME280;49961;43.970;22.868;2024-03-08T03:45:31;102019.56;;;8.25;100.00
63808;BME280;49961;43.970;22.868;2024-03-08T03:46:35;102025.88;;;8.22;100.00
63808;BME280;49961;43.970;22.868;2024-03-08T03:47:36;102028.66;;;8.26;100.00
63808;BME280;49961;43.970;22.868;2024-03-08T03:48:36;101989.34;;;7.99;100.00
63808;BME280;49961;43.970;22.868;2024-03-08T03:49:37;102047.97;;;8.22;100.00
63808;BME280;49961;43.970;22.868;2024-03-08T03:50:37;102025.53;;;8.27;100.00
63808;BME280;49961;43.970;22.868;2024-03-08T03:51:38;102022.78;;;8.27;100.00
63808;BME280;49961;43.970;22.868;2024-03-08T03:52:39;102000.94;;;8.15;100.00
63808;BME280;49961;43.970;22.868;2024-03-08T03:53:39;102032.28;;;8.33;100.00
63808;BME280;49961;43.970;22.868;2024-03-08T03:54:40;102028.72;;;8.33;100.00
63808;BME280;49961;43.970;22.868;2024-03-08T03:55:40;102030.34;;;8.37;100.00
63808;BME280;49961;43.970;22.868;2024-03-08T03:56:41;102035.88;;;8.37;100.00
63808;BME280;49961;43.970;22.868;2024-03-08T03:57:42;101891.47;;;7.39;100.00
63808;BME280;49961;43.970;22.868;2024-03-08T03:58:43;102033.06;;;8.34;100.00
63808;BME280;49961;43.970;22.868;2024-03-08T03:59:44;102031.44;;;8.29;100.00
63808;BME280;49961;43.970;22.868;2024-03-08T04:00:44;102033.47;;;8.32;100.00
63808;BME280;49961;43.970;22.868;2024-03-08T04:01:45;102036.59;;;8.31;100.00
63808;BME280;49961;43.970;22.868;2024-03-08T04:02:45;102037.78;;;8.30;100.00
63808;BME280;49961;43.970;22.868;2024-03-08T04:03:46;102037.72;;;8.26;100.00
63808;BME280;49961;43.970;22.868;2024-03-08T04:04:47;102031.06;;;8.31;100.00
63808;BME280;49961;43.970;22.868;2024-03-08T04:05:48;101912.06;;;7.49;100.00
63808;BME280;49961;43.970;22.868;2024-03-08T04:06:48;102027.09;;;8.25;100.00
63808;BME280;49961;43.970;22.868;2024-03-08T04:07:51;102038.19;;;8.32;100.00
63808;BME280;49961;43.970;22.868;2024-03-08T04:08:51;102048.41;;;8.31;100.00
63808;BME280;49961;43.970;22.868;2024-03-08T04:09:52;102029.78;;;8.21;100.00
63808;BME280;49961;43.970;22.868;2024-03-08T04:10:52;102026.16;;;8.14;100.00
63808;BME280;49961;43.970;22.868;2024-03-08T04:11:53;102042.03;;;8.20;100.00
63808;BME280;49961;43.970;22.868;2024-03-08T04:12:55;102020.59;;;8.10;100.00
63808;BME280;49961;43.970;22.868;2024-03-08T04:13:57;102045.63;;;8.24;100.00
63808;BME280;49961;43.970;22.868;2024-03-08T04:14:57;102019.03;;;8.09;100.00
63808;BME280;49961;43.970;22.868;2024-03-08T04:15:58;102046.38;;;8.21;100.00
63808;BME280;49961;43.970;22.868;2024-03-08T04:16:58;102030.91;;;8.13;100.00
63808;BME280;49961;43.970;22.868;2024-03-08T04:17:59;102044.44;;;8.25;100.00
63808;BME280;49961;43.970;22.868;2024-03-08T04:19:00;102027.34;;;8.16;100.00
63808;BME280;49961;43.970;22.868;2024-03-08T04:20:05;101977.41;;;7.85;100.00
63808;BME280;49961;43.970;22.868;2024-03-08T04:21:09;102050.78;;;8.29;100.00
63808;BME280;49961;43.970;22.868;2024-03-08T04:22:10;102053.16;;;8.31;100.00
63808;BME280;49961;43.970;22.868;2024-03-08T04:23:11;102051.16;;;8.28;100.00
63808;BME280;49961;43.970;22.868;2024-03-08T04:24:12;102048.00;;;8.26;100.00
63808;BME280;49961;43.970;22.868;2024-03-08T04:25:12;102053.16;;;8.27;100.00
63808;BME280;49961;43.970;22.868;2024-03-08T04:26:13;102044.09;;;8.30;100.00
63808;BME280;49961;43.970;22.868;2024-03-08T04:27:14;102053.91;;;8.28;100.00
63808;BME280;49961;43.970;22.868;2024-03-08T04:28:14;101900.41;;;7.26;100.00
63808;BME280;49961;43.970;22.868;2024-03-08T04:29:15;102064.44;;;8.15;100.00
63808;BME280;49961;43.970;22.868;2024-03-08T04:30:16;102030.78;;;7.99;100.00
63808;BME280;49961;43.970;22.868;2024-03-08T04:31:16;102049.78;;;8.11;100.00
63808;BME280;49961;43.970;22.868;2024-03-08T04:32:17;102049.78;;;8.11;100.00
63808;BME280;49961;43.970;22.868;2024-03-08T04:33:17;102061.25;;;8.10;100.00
63808;BME280;49961;43.970;22.868;2024-03-08T04:34:18;102051.41;;;8.12;100.00
63808;BME280;49961;43.970;22.868;2024-03-08T04:35:19;102054.94;;;8.13;100.00
63808;BME280;49961;43.970;22.868;2024-03-08T04:36:20;101922.91;;;7.31;100.00
63808;BME280;49961;43.970;22.868;2024-03-08T04:37:21;102052.63;;;8.15;100.00
63808;BME280;49961;43.970;22.868;2024-03-08T04:38:22;101974.88;;;7.66;100.00
63808;BME280;49961;43.970;22.868;2024-03-08T04:39:22;101877.00;;;7.09;100.00
63808;BME280;49961;43.970;22.868;2024-03-08T04:40:23;102055.06;;;8.23;100.00
63808;BME280;49961;43.970;22.868;2024-03-08T04:41:24;102060.59;;;8.23;100.00
63808;BME280;49961;43.970;22.868;2024-03-08T04:42:25;102049.59;;;8.27;100.00
63808;BME280;49961;43.970;22.868;2024-03-08T04:43:26;102053.53;;;8.29;100.00
63808;BME280;49961;43.970;22.868;2024-03-08T04:44:27;102055.84;;;8.24;100.00
63808;BME280;49961;43.970;22.868;2024-03-08T04:45:28;102056.66;;;8.24;100.00
63808;BME280;49961;43.970;22.868;2024-03-08T04:46:28;101964.59;;;7.63;100.00
63808;BME280;49961;43.970;22.868;2024-03-08T04:47:28;102057.34;;;8.14;100.00
63808;BME280;49961;43.970;22.868;2024-03-08T04:48:29;102012.91;;;7.86;100.00
63808;BME280;49961;43.970;22.868;2024-03-08T04:49:30;102024.72;;;7.87;100.00
63808;BME280;49961;43.970;22.868;2024-03-08T04:50:30;102036.22;;;7.89;100.00
63808;BME280;49961;43.970;22.868;2024-03-08T04:51:31;102051.28;;;7.98;100.00
63808;BME280;49961;43.970;22.868;2024-03-08T04:52:31;102059.94;;;7.97;100.00
63808;BME280;49961;43.970;22.868;2024-03-08T04:53:31;102041.75;;;7.92;100.00
63808;BME280;49961;43.970;22.868;2024-03-08T04:54:33;101917.91;;;7.04;100.00
63808;BME280;49961;43.970;22.868;2024-03-08T04:55:34;102046.25;;;7.71;100.00
63808;BME280;49961;43.970;22.868;2024-03-08T04:56:35;102058.75;;;8.99;100.00
63808;BME280;49961;43.970;22.868;2024-03-08T04:57:36;102027.97;;;11.42;100.00
63808;BME280;49961;43.970;22.868;2024-03-08T04:58:37;102075.53;;;12.63;100.00
63808;BME280;49961;43.970;22.868;2024-03-08T04:59:37;102076.72;;;13.06;100.00
63808;BME280;49961;43.970;22.868;2024-03-08T05:00:38;102075.50;;;13.71;100.00
63808;BME280;49961;43.970;22.868;2024-03-08T05:01:38;102060.09;;;13.89;100.00
63808;BME280;49961;43.970;22.868;2024-03-08T05:02:39;102061.56;;;13.41;100.00
63808;BME280;49961;43.970;22.868;2024-03-08T05:03:39;102044.34;;;12.82;100.00
63808;BME280;49961;43.970;22.868;2024-03-08T05:04:40;101993.84;;;12.06;100.00
63808;BME280;49961;43.970;22.868;2024-03-08T05:05:42;102070.31;;;12.25;100.00
63808;BME280;49961;43.970;22.868;2024-03-08T05:06:42;102070.53;;;11.93;100.00
63808;BME280;49961;43.970;22.868;2024-03-08T05:07:43;102052.88;;;11.59;100.00
63808;BME280;49961;43.970;22.868;2024-03-08T05:08:45;102069.97;;;11.47;100.00
63808;BME280;49961;43.970;22.868;2024-03-08T05:09:46;102071.25;;;11.18;100.00
63808;BME280;49961;43.970;22.868;2024-03-08T05:10:51;102072.91;;;11.02;100.00
63808;BME280;49961;43.970;22.868;2024-03-08T05:11:52;102073.34;;;10.83;100.00
63808;BME280;49961;43.970;22.868;2024-03-08T05:12:52;102070.22;;;10.67;100.00
63808;BME280;49961;43.970;22.868;2024-03-08T05:13:53;102074.59;;;10.47;100.00
63808;BME280;49961;43.970;22.868;2024-03-08T05:14:54;102076.16;;;10.30;100.00
63808;BME280;49961;43.970;22.868;2024-03-08T05:15:55;101979.94;;;9.50;100.00